This is the latest recevied weather packets stored in our database for station/object N4AR. If no packets are shown the sender has not sent any weather packets the latest 10 day(s).
| Time | Temp. | Humidity | Pressure | Rain* | Wind** | Luminosity | Snow |
|---|---|---|---|---|---|---|---|
| 1777651221 | 17.78° C | 40% | 1016.1 hPa | 0 mm | - | 728 W/m² | - |
| 1777650917 | 17.78° C | 42% | 1016.3 hPa | 0 mm | - | 808 W/m² | - |
| 1777650614 | 17.78° C | 41% | 1016.5 hPa | 0 mm | - | 834 W/m² | - |
| 1777650312 | 17.22° C | 41% | 1016.4 hPa | 0 mm | - | 822 W/m² | - |
| 1777650009 | 16.67° C | 44% | 1016.6 hPa | 0 mm | - | 800 W/m² | - |
| 1777649707 | 17.22° C | 45% | 1016.3 hPa | 0 mm | - | 712 W/m² | - |
| 1777649402 | 16.67° C | 44% | 1016.6 hPa | 0 mm | - | 671 W/m² | - |
| 1777649100 | 16.11° C | 44% | 1016.6 hPa | 0 mm | - | 572 W/m² | - |
| 1777648797 | 16.67° C | 42% | 1016.6 hPa | 0 mm | - | 672 W/m² | - |
| 1777648494 | 16.67° C | 46% | 1016.8 hPa | 0 mm | - | 633 W/m² | - |
| 1777648190 | 16.11° C | 46% | 1016.8 hPa | 0 mm | - | 546 W/m² | - |
| 1777647886 | 15.56° C | 46% | 1016.7 hPa | 0 mm | - | 567 W/m² | - |
| 1777647582 | 15.56° C | 51% | 1016.4 hPa | 0 mm | - | 337 W/m² | - |
| 1777647278 | 15° C | 50% | 1016.8 hPa | 0 mm | - | 389 W/m² | - |
| 1777646977 | 15.56° C | 48% | 1016.5 hPa | 0 mm | - | 328 W/m² | - |
| 1777646672 | 15.56° C | 50% | 1016.5 hPa | 0 mm | - | 356 W/m² | - |
| 1777646368 | 15.56° C | 48% | 1016.6 hPa | 0 mm | - | 348 W/m² | - |
| 1777646065 | 15° C | 51% | 1016.7 hPa | 0 mm | - | 486 W/m² | - |
| 1777645761 | 15° C | 52% | 1016.5 hPa | 0 mm | - | 432 W/m² | - |
| 1777645459 | 15° C | 48% | 1016.6 hPa | 0 mm | - | 414 W/m² | - |
| 1777645154 | 14.44° C | 52% | 1016.7 hPa | 0 mm | - | 339 W/m² | - |
| 1777644851 | 14.44° C | 51% | 1016.6 hPa | 0 mm | - | 332 W/m² | - |
| 1777644549 | 14.44° C | 56% | 1016.4 hPa | 0 mm | - | 417 W/m² | - |
| 1777644244 | 13.89° C | 55% | 1016.6 hPa | 0 mm | - | 288 W/m² | - |
| 1777643941 | 13.33° C | 54% | 1016.7 hPa | 0 mm | - | 282 W/m² | - |
* Rain latest hour (hover to see other rain measurements)
** Current wind speed in m/s (hover to see current wind gust speed)